Startpagina
METAR-TAF:

METAR-TAF

Vliegvelden :

Tongatapu, Tonga

breedte: 21-14S, lengte: 175-09W, hoogte: 38 m

Actueel weer

Dit bericht is 22 minuten geleden gemaakt, om 05:00 UTC
Wind 6 kt uit het zuidzuidwesten
Temperatuur 28°C
Vochtigheid 70%
Druk 1008 hPa
Zicht 10 km of meer
Weinig wolken op 1700 ft, Stapelwolken.

METAR: NFTF 110500Z 21006KT 9999 FEW017TCU 28/22 Q1008

Tijdstip: 18:22 (05:22 UTC)

Verwachting

Dit bericht is 6 uur en het 14 minuten geleden gemaakt, om 23:08 UTC
Verwachting geldig van 11 om 00 UTC tot 11 om 24 UTC
Wind 10 kt uit het westzuidwesten
Zicht 10 km of meer
Weinig wolken op 1500 ft
Verspreide wolken op 10000 ft

TAF: NFTF 102308Z 1100/1124 25010KT 9999 FEW015 SCT100

Waarnemingen en weersverwachtingen van meer dan 4000 vliegvelden (METAR en TAF).

De beschikbare stations zijn de gele en rode punten op de kaart.

Ga met uw muis naar het station om de naam te zien.

Klik dan om waarnemingen en weersverwachtingen te zien.

kaart wijzigen: klik op de groene knoppen met een zwart kruis om in te zoomen, op de groene knop met een streepje om uit te zoomen of op de groene pijlen voor aangrenzende kaarten.


METAR-TAF: